sensor_id;sensor_type;location;lat;lon;timestamp;temperature;humidity
1359;DHT22;673;48.098;14.422;2022-08-19T00:00:17;18.40;99.90
1359;DHT22;673;48.098;14.422;2022-08-19T00:02:46;18.50;99.90
1359;DHT22;673;48.098;14.422;2022-08-19T00:05:14;18.40;99.90
1359;DHT22;673;48.098;14.422;2022-08-19T00:07:42;18.40;99.90
1359;DHT22;673;48.098;14.422;2022-08-19T00:10:11;18.40;99.90
1359;DHT22;673;48.098;14.422;2022-08-19T00:12:39;18.50;99.90
1359;DHT22;673;48.098;14.422;2022-08-19T00:15:09;18.40;99.90
1359;DHT22;673;48.098;14.422;2022-08-19T00:17:38;18.50;99.90
1359;DHT22;673;48.098;14.422;2022-08-19T00:20:08;18.50;99.90
1359;DHT22;673;48.098;14.422;2022-08-19T00:22:36;18.50;99.90
1359;DHT22;673;48.098;14.422;2022-08-19T00:25:04;18.40;99.90
1359;DHT22;673;48.098;14.422;2022-08-19T00:27:31;18.50;99.90
1359;DHT22;673;48.098;14.422;2022-08-19T00:29:58;18.50;99.90
1359;DHT22;673;48.098;14.422;2022-08-19T00:32:25;18.60;99.90
1359;DHT22;673;48.098;14.422;2022-08-19T00:34:53;18.50;99.90
1359;DHT22;673;48.098;14.422;2022-08-19T00:37:22;18.50;99.90
1359;DHT22;673;48.098;14.422;2022-08-19T00:39:51;18.60;99.90
1359;DHT22;673;48.098;14.422;2022-08-19T00:42:20;18.60;99.90
1359;DHT22;673;48.098;14.422;2022-08-19T00:44:47;18.50;99.90
1359;DHT22;673;48.098;14.422;2022-08-19T00:47:16;18.60;99.90
1359;DHT22;673;48.098;14.422;2022-08-19T00:49:45;18.50;99.90
1359;DHT22;673;48.098;14.422;2022-08-19T00:52:21;18.60;99.90
1359;DHT22;673;48.098;14.422;2022-08-19T00:54:50;18.60;99.90
1359;DHT22;673;48.098;14.422;2022-08-19T00:57:22;18.60;99.90
1359;DHT22;673;48.098;14.422;2022-08-19T00:59:52;18.60;99.90
1359;DHT22;673;48.098;14.422;2022-08-19T01:02:23;18.50;99.90
1359;DHT22;673;48.098;14.422;2022-08-19T01:04:50;18.50;99.90
1359;DHT22;673;48.098;14.422;2022-08-19T01:07:17;18.40;99.90
1359;DHT22;673;48.098;14.422;2022-08-19T01:09:46;18.40;99.90
1359;DHT22;673;48.098;14.422;2022-08-19T01:12:13;18.40;99.90
1359;DHT22;673;48.098;14.422;2022-08-19T01:14:40;18.30;99.90
1359;DHT22;673;48.098;14.422;2022-08-19T01:17:09;18.40;99.90
1359;DHT22;673;48.098;14.422;2022-08-19T01:19:39;18.30;99.90
1359;DHT22;673;48.098;14.422;2022-08-19T01:22:14;18.30;99.90
1359;DHT22;673;48.098;14.422;2022-08-19T01:24:44;18.30;99.90
1359;DHT22;673;48.098;14.422;2022-08-19T01:27:11;18.20;99.90
1359;DHT22;673;48.098;14.422;2022-08-19T01:29:42;18.10;99.90
1359;DHT22;673;48.098;14.422;2022-08-19T01:32:12;18.10;99.90
1359;DHT22;673;48.098;14.422;2022-08-19T01:34:40;18.10;99.90
1359;DHT22;673;48.098;14.422;2022-08-19T01:37:10;18.10;99.90
1359;DHT22;673;48.098;14.422;2022-08-19T01:39:39;18.20;99.90
1359;DHT22;673;48.098;14.422;2022-08-19T01:42:08;18.30;99.90
1359;DHT22;673;48.098;14.422;2022-08-19T01:44:37;18.30;99.90
1359;DHT22;673;48.098;14.422;2022-08-19T01:47:06;18.30;99.90
1359;DHT22;673;48.098;14.422;2022-08-19T01:49:35;18.40;99.90
1359;DHT22;673;48.098;14.422;2022-08-19T01:52:02;18.40;99.90
1359;DHT22;673;48.098;14.422;2022-08-19T01:54:30;18.40;99.90
1359;DHT22;673;48.098;14.422;2022-08-19T01:57:01;18.50;99.90
1359;DHT22;673;48.098;14.422;2022-08-19T01:59:31;18.40;99.90
1359;DHT22;673;48.098;14.422;2022-08-19T02:01:59;18.40;99.90
1359;DHT22;673;48.098;14.422;2022-08-19T02:04:26;18.30;99.90
1359;DHT22;673;48.098;14.422;2022-08-19T02:06:53;18.30;99.90
1359;DHT22;673;48.098;14.422;2022-08-19T02:09:20;18.30;99.90
1359;DHT22;673;48.098;14.422;2022-08-19T02:11:47;18.40;99.90
1359;DHT22;673;48.098;14.422;2022-08-19T02:14:14;18.50;99.90
1359;DHT22;673;48.098;14.422;2022-08-19T02:16:43;18.60;99.90
1359;DHT22;673;48.098;14.422;2022-08-19T02:19:10;18.50;99.90
1359;DHT22;673;48.098;14.422;2022-08-19T02:21:37;18.40;99.90
1359;DHT22;673;48.098;14.422;2022-08-19T02:24:04;18.40;99.90
1359;DHT22;673;48.098;14.422;2022-08-19T02:26:32;18.30;99.90
1359;DHT22;673;48.098;14.422;2022-08-19T02:28:59;18.40;99.90
1359;DHT22;673;48.098;14.422;2022-08-19T02:31:27;18.40;99.90
1359;DHT22;673;48.098;14.422;2022-08-19T02:33:56;18.30;99.90
1359;DHT22;673;48.098;14.422;2022-08-19T02:36:24;18.20;99.90
1359;DHT22;673;48.098;14.422;2022-08-19T02:38:52;18.10;99.90
1359;DHT22;673;48.098;14.422;2022-08-19T02:41:20;18.10;99.90
1359;DHT22;673;48.098;14.422;2022-08-19T02:43:48;18.00;99.90
1359;DHT22;673;48.098;14.422;2022-08-19T02:46:18;18.00;99.90
1359;DHT22;673;48.098;14.422;2022-08-19T02:48:47;18.00;99.90
1359;DHT22;673;48.098;14.422;2022-08-19T02:51:18;18.00;99.90
1359;DHT22;673;48.098;14.422;2022-08-19T02:53:45;18.00;99.90
1359;DHT22;673;48.098;14.422;2022-08-19T02:56:12;18.00;99.90
1359;DHT22;673;48.098;14.422;2022-08-19T02:58:40;17.90;99.90
1359;DHT22;673;48.098;14.422;2022-08-19T03:01:07;18.00;99.90
1359;DHT22;673;48.098;14.422;2022-08-19T03:03:34;18.00;99.90
1359;DHT22;673;48.098;14.422;2022-08-19T03:06:10;18.00;99.90
1359;DHT22;673;48.098;14.422;2022-08-19T03:08:41;17.90;99.90
1359;DHT22;673;48.098;14.422;2022-08-19T03:11:13;18.00;99.90
1359;DHT22;673;48.098;14.422;2022-08-19T03:13:40;18.00;99.90
1359;DHT22;673;48.098;14.422;2022-08-19T03:16:09;18.00;99.90
1359;DHT22;673;48.098;14.422;2022-08-19T03:18:36;18.00;99.90
1359;DHT22;673;48.098;14.422;2022-08-19T03:21:04;17.90;99.90
1359;DHT22;673;48.098;14.422;2022-08-19T03:23:31;17.90;99.90
1359;DHT22;673;48.098;14.422;2022-08-19T03:26:04;17.80;99.90
1359;DHT22;673;48.098;14.422;2022-08-19T03:28:32;17.80;99.90
1359;DHT22;673;48.098;14.422;2022-08-19T03:31:01;17.80;99.90
1359;DHT22;673;48.098;14.422;2022-08-19T03:33:29;17.70;99.90
1359;DHT22;673;48.098;14.422;2022-08-19T03:36:06;17.70;99.90
1359;DHT22;673;48.098;14.422;2022-08-19T03:38:35;17.60;99.90
1359;DHT22;673;48.098;14.422;2022-08-19T03:41:05;17.60;99.90
1359;DHT22;673;48.098;14.422;2022-08-19T03:43:34;17.50;99.90
1359;DHT22;673;48.098;14.422;2022-08-19T03:46:04;17.60;99.90
1359;DHT22;673;48.098;14.422;2022-08-19T03:48:32;17.60;99.90
1359;DHT22;673;48.098;14.422;2022-08-19T03:51:00;17.60;99.90
1359;DHT22;673;48.098;14.422;2022-08-19T03:53:29;17.70;99.90
1359;DHT22;673;48.098;14.422;2022-08-19T03:55:57;17.70;99.90
1359;DHT22;673;48.098;14.422;2022-08-19T03:58:27;17.60;99.90
1359;DHT22;673;48.098;14.422;2022-08-19T04:00:56;17.60;99.90
1359;DHT22;673;48.098;14.422;2022-08-19T04:03:23;17.60;99.90
1359;DHT22;673;48.098;14.422;2022-08-19T04:05:50;17.50;99.90
1359;DHT22;673;48.098;14.422;2022-08-19T04:08:17;17.50;99.90
1359;DHT22;673;48.098;14.422;2022-08-19T04:10:46;17.60;99.90
1359;DHT22;673;48.098;14.422;2022-08-19T04:13:13;17.70;99.90
1359;DHT22;673;48.098;14.422;2022-08-19T04:15:44;17.80;99.90
1359;DHT22;673;48.098;14.422;2022-08-19T04:18:12;17.90;99.90
1359;DHT22;673;48.098;14.422;2022-08-19T04:20:41;17.90;99.90
1359;DHT22;673;48.098;14.422;2022-08-19T04:23:08;18.00;99.90
1359;DHT22;673;48.098;14.422;2022-08-19T04:25:37;18.10;99.90
1359;DHT22;673;48.098;14.422;2022-08-19T04:28:04;18.10;99.90
1359;DHT22;673;48.098;14.422;2022-08-19T04:30:37;18.20;99.90
1359;DHT22;673;48.098;14.422;2022-08-19T04:33:06;18.30;99.90
1359;DHT22;673;48.098;14.422;2022-08-19T04:35:38;18.30;99.90
1359;DHT22;673;48.098;14.422;2022-08-19T04:38:05;18.40;99.90
1359;DHT22;673;48.098;14.422;2022-08-19T04:40:32;18.40;99.90
1359;DHT22;673;48.098;14.422;2022-08-19T04:43:16;18.50;99.90
1359;DHT22;673;48.098;14.422;2022-08-19T04:45:44;18.50;99.90
1359;DHT22;673;48.098;14.422;2022-08-19T04:48:12;18.50;99.90
1359;DHT22;673;48.098;14.422;2022-08-19T04:50:41;18.50;99.90
1359;DHT22;673;48.098;14.422;2022-08-19T04:53:08;18.60;99.90
1359;DHT22;673;48.098;14.422;2022-08-19T04:55:39;18.50;99.90
1359;DHT22;673;48.098;14.422;2022-08-19T04:58:06;18.60;99.90
1359;DHT22;673;48.098;14.422;2022-08-19T05:00:33;18.50;99.90
1359;DHT22;673;48.098;14.422;2022-08-19T05:03:00;18.50;99.90
1359;DHT22;673;48.098;14.422;2022-08-19T05:05:29;18.40;99.90
1359;DHT22;673;48.098;14.422;2022-08-19T05:07:57;18.40;99.90
1359;DHT22;673;48.098;14.422;2022-08-19T05:10:24;18.30;99.90
1359;DHT22;673;48.098;14.422;2022-08-19T05:12:51;18.40;99.90
1359;DHT22;673;48.098;14.422;2022-08-19T05:15:18;18.30;99.90
1359;DHT22;673;48.098;14.422;2022-08-19T05:17:45;18.30;99.90
1359;DHT22;673;48.098;14.422;2022-08-19T05:20:26;18.30;99.90
1359;DHT22;673;48.098;14.422;2022-08-19T05:23:12;18.30;99.90
1359;DHT22;673;48.098;14.422;2022-08-19T05:25:41;18.30;99.90
1359;DHT22;673;48.098;14.422;2022-08-19T05:28:08;18.40;99.90
1359;DHT22;673;48.098;14.422;2022-08-19T05:30:35;18.30;99.90
1359;DHT22;673;48.098;14.422;2022-08-19T05:33:02;18.20;99.90
1359;DHT22;673;48.098;14.422;2022-08-19T05:35:29;18.00;99.90
1359;DHT22;673;48.098;14.422;2022-08-19T05:37:56;18.00;99.90
1359;DHT22;673;48.098;14.422;2022-08-19T05:40:25;18.10;99.90
1359;DHT22;673;48.098;14.422;2022-08-19T05:42:52;18.10;99.90
1359;DHT22;673;48.098;14.422;2022-08-19T05:45:19;18.10;99.90
1359;DHT22;673;48.098;14.422;2022-08-19T05:47:47;18.20;99.90
1359;DHT22;673;48.098;14.422;2022-08-19T05:50:15;18.30;99.90
1359;DHT22;673;48.098;14.422;2022-08-19T05:52:43;18.30;99.90
1359;DHT22;673;48.098;14.422;2022-08-19T05:55:10;18.30;99.90
1359;DHT22;673;48.098;14.422;2022-08-19T05:57:39;18.50;99.90
1359;DHT22;673;48.098;14.422;2022-08-19T06:00:07;18.50;99.90
1359;DHT22;673;48.098;14.422;2022-08-19T06:02:36;18.80;99.90
1359;DHT22;673;48.098;14.422;2022-08-19T06:05:05;19.00;99.90
1359;DHT22;673;48.098;14.422;2022-08-19T06:07:34;19.20;99.90
1359;DHT22;673;48.098;14.422;2022-08-19T06:10:01;19.50;99.90
1359;DHT22;673;48.098;14.422;2022-08-19T06:12:29;19.80;99.90
1359;DHT22;673;48.098;14.422;2022-08-19T06:15:00;20.20;99.90
1359;DHT22;673;48.098;14.422;2022-08-19T06:17:28;20.40;99.90
1359;DHT22;673;48.098;14.422;2022-08-19T06:19:55;20.50;99.90
1359;DHT22;673;48.098;14.422;2022-08-19T06:22:22;20.70;99.90
1359;DHT22;673;48.098;14.422;2022-08-19T06:24:49;20.70;99.90
1359;DHT22;673;48.098;14.422;2022-08-19T06:27:18;20.80;99.90
1359;DHT22;673;48.098;14.422;2022-08-19T06:29:46;20.90;99.90
1359;DHT22;673;48.098;14.422;2022-08-19T06:32:16;21.10;99.90
1359;DHT22;673;48.098;14.422;2022-08-19T06:34:44;21.30;99.90
1359;DHT22;673;48.098;14.422;2022-08-19T06:37:11;21.30;99.90
1359;DHT22;673;48.098;14.422;2022-08-19T06:39:41;21.70;99.90
1359;DHT22;673;48.098;14.422;2022-08-19T06:42:09;21.80;99.90
1359;DHT22;673;48.098;14.422;2022-08-19T06:44:40;21.80;99.90
1359;DHT22;673;48.098;14.422;2022-08-19T06:47:10;21.80;99.90
1359;DHT22;673;48.098;14.422;2022-08-19T06:49:38;21.60;99.90
1359;DHT22;673;48.098;14.422;2022-08-19T06:52:05;21.80;99.90
1359;DHT22;673;48.098;14.422;2022-08-19T06:54:32;21.70;99.90
1359;DHT22;673;48.098;14.422;2022-08-19T06:57:00;22.00;99.90
1359;DHT22;673;48.098;14.422;2022-08-19T06:59:28;22.00;99.90
1359;DHT22;673;48.098;14.422;2022-08-19T07:01:59;21.80;99.90
1359;DHT22;673;48.098;14.422;2022-08-19T07:04:28;21.90;99.90
1359;DHT22;673;48.098;14.422;2022-08-19T07:07:00;22.10;99.90
1359;DHT22;673;48.098;14.422;2022-08-19T07:09:27;22.50;99.90
1359;DHT22;673;48.098;14.422;2022-08-19T07:11:55;22.70;99.90
1359;DHT22;673;48.098;14.422;2022-08-19T07:14:24;22.50;99.90
1359;DHT22;673;48.098;14.422;2022-08-19T07:16:53;22.80;99.90
1359;DHT22;673;48.098;14.422;2022-08-19T07:19:22;22.90;99.90
1359;DHT22;673;48.098;14.422;2022-08-19T07:21:51;22.70;99.90
1359;DHT22;673;48.098;14.422;2022-08-19T07:24:22;22.50;99.90
1359;DHT22;673;48.098;14.422;2022-08-19T07:26:51;22.20;99.90
1359;DHT22;673;48.098;14.422;2022-08-19T07:29:19;22.10;99.90
1359;DHT22;673;48.098;14.422;2022-08-19T07:31:49;22.10;99.90
1359;DHT22;673;48.098;14.422;2022-08-19T07:34:16;22.10;99.90
1359;DHT22;673;48.098;14.422;2022-08-19T07:36:44;22.20;99.90
1359;DHT22;673;48.098;14.422;2022-08-19T07:39:21;22.00;99.90
1359;DHT22;673;48.098;14.422;2022-08-19T07:41:48;22.30;99.90
1359;DHT22;673;48.098;14.422;2022-08-19T07:44:17;22.30;99.90
1359;DHT22;673;48.098;14.422;2022-08-19T07:46:47;22.40;99.90
1359;DHT22;673;48.098;14.422;2022-08-19T07:49:14;22.40;99.90
1359;DHT22;673;48.098;14.422;2022-08-19T07:51:45;22.40;99.90
1359;DHT22;673;48.098;14.422;2022-08-19T07:54:12;22.60;99.90
1359;DHT22;673;48.098;14.422;2022-08-19T07:56:41;22.60;99.90
1359;DHT22;673;48.098;14.422;2022-08-19T07:59:08;22.80;99.90
1359;DHT22;673;48.098;14.422;2022-08-19T08:01:35;23.00;99.90
1359;DHT22;673;48.098;14.422;2022-08-19T08:04:03;23.00;99.90
1359;DHT22;673;48.098;14.422;2022-08-19T08:06:47;22.70;99.90
1359;DHT22;673;48.098;14.422;2022-08-19T08:09:34;22.60;99.90
1359;DHT22;673;48.098;14.422;2022-08-19T08:12:05;22.70;99.90
1359;DHT22;673;48.098;14.422;2022-08-19T08:14:34;22.80;99.90
1359;DHT22;673;48.098;14.422;2022-08-19T08:17:03;22.70;99.90
1359;DHT22;673;48.098;14.422;2022-08-19T08:19:31;23.10;99.90
1359;DHT22;673;48.098;14.422;2022-08-19T08:22:00;23.30;99.90
1359;DHT22;673;48.098;14.422;2022-08-19T08:24:29;23.40;99.90
1359;DHT22;673;48.098;14.422;2022-08-19T08:26:59;23.30;99.90
1359;DHT22;673;48.098;14.422;2022-08-19T08:29:29;23.60;99.90
1359;DHT22;673;48.098;14.422;2022-08-19T08:31:56;23.40;99.90
1359;DHT22;673;48.098;14.422;2022-08-19T08:34:23;23.00;99.90
1359;DHT22;673;48.098;14.422;2022-08-19T08:36:50;23.00;99.90
1359;DHT22;673;48.098;14.422;2022-08-19T08:39:20;22.80;99.90
1359;DHT22;673;48.098;14.422;2022-08-19T08:41:53;23.00;99.90
1359;DHT22;673;48.098;14.422;2022-08-19T08:44:23;23.40;99.90
1359;DHT22;673;48.098;14.422;2022-08-19T08:46:59;23.70;99.90
1359;DHT22;673;48.098;14.422;2022-08-19T08:49:40;23.10;99.90
1359;DHT22;673;48.098;14.422;2022-08-19T08:52:13;23.20;99.90
1359;DHT22;673;48.098;14.422;2022-08-19T08:54:43;23.60;99.90
1359;DHT22;673;48.098;14.422;2022-08-19T08:57:14;23.60;99.90
1359;DHT22;673;48.098;14.422;2022-08-19T08:59:44;23.30;99.90
1359;DHT22;673;48.098;14.422;2022-08-19T09:02:18;23.30;99.90
1359;DHT22;673;48.098;14.422;2022-08-19T09:04:45;23.30;99.90
1359;DHT22;673;48.098;14.422;2022-08-19T09:07:21;23.30;99.90
1359;DHT22;673;48.098;14.422;2022-08-19T09:10:01;23.30;99.90
1359;DHT22;673;48.098;14.422;2022-08-19T09:12:39;24.00;99.90
1359;DHT22;673;48.098;14.422;2022-08-19T09:15:12;24.10;99.90
1359;DHT22;673;48.098;14.422;2022-08-19T09:17:41;24.50;99.90
1359;DHT22;673;48.098;14.422;2022-08-19T09:20:16;24.80;99.90
1359;DHT22;673;48.098;14.422;2022-08-19T09:22:44;24.70;99.90
1359;DHT22;673;48.098;14.422;2022-08-19T09:25:14;24.40;99.90
1359;DHT22;673;48.098;14.422;2022-08-19T09:27:42;24.60;99.90
1359;DHT22;673;48.098;14.422;2022-08-19T09:30:15;24.90;99.90
1359;DHT22;673;48.098;14.422;2022-08-19T09:32:44;25.50;99.90
1359;DHT22;673;48.098;14.422;2022-08-19T09:35:12;25.50;99.90
1359;DHT22;673;48.098;14.422;2022-08-19T09:37:39;25.90;99.90
1359;DHT22;673;48.098;14.422;2022-08-19T09:40:07;26.30;99.90
1359;DHT22;673;48.098;14.422;2022-08-19T09:42:34;26.60;99.90
1359;DHT22;673;48.098;14.422;2022-08-19T09:45:03;26.00;99.30
1359;DHT22;673;48.098;14.422;2022-08-19T09:47:30;25.40;99.90
1359;DHT22;673;48.098;14.422;2022-08-19T09:49:59;25.30;99.90
1359;DHT22;673;48.098;14.422;2022-08-19T09:52:26;25.10;99.90
1359;DHT22;673;48.098;14.422;2022-08-19T09:54:53;25.20;99.90
1359;DHT22;673;48.098;14.422;2022-08-19T09:57:20;25.20;99.90
1359;DHT22;673;48.098;14.422;2022-08-19T09:59:47;25.10;99.90
1359;DHT22;673;48.098;14.422;2022-08-19T10:02:14;24.90;99.90
1359;DHT22;673;48.098;14.422;2022-08-19T10:04:41;24.80;99.90
1359;DHT22;673;48.098;14.422;2022-08-19T10:07:29;25.00;99.90
1359;DHT22;673;48.098;14.422;2022-08-19T10:09:56;25.10;98.90
1359;DHT22;673;48.098;14.422;2022-08-19T10:12:24;25.30;98.80
1359;DHT22;673;48.098;14.422;2022-08-19T10:14:58;25.40;99.10
1359;DHT22;673;48.098;14.422;2022-08-19T10:17:46;25.30;99.10
1359;DHT22;673;48.098;14.422;2022-08-19T10:20:18;25.10;99.40
1359;DHT22;673;48.098;14.422;2022-08-19T10:22:54;25.10;99.60
1359;DHT22;673;48.098;14.422;2022-08-19T10:25:21;24.90;99.90
1359;DHT22;673;48.098;14.422;2022-08-19T10:27:48;25.00;99.90
1359;DHT22;673;48.098;14.422;2022-08-19T10:30:15;24.90;99.90
1359;DHT22;673;48.098;14.422;2022-08-19T10:32:42;24.90;99.90
1359;DHT22;673;48.098;14.422;2022-08-19T10:35:12;25.10;99.90
1359;DHT22;673;48.098;14.422;2022-08-19T10:37:40;25.40;99.60
1359;DHT22;673;48.098;14.422;2022-08-19T10:40:10;25.50;99.30
1359;DHT22;673;48.098;14.422;2022-08-19T10:42:37;25.40;99.60
1359;DHT22;673;48.098;14.422;2022-08-19T10:45:06;25.10;99.30
1359;DHT22;673;48.098;14.422;2022-08-19T10:47:35;25.00;99.90
1359;DHT22;673;48.098;14.422;2022-08-19T10:50:03;25.10;99.90
1359;DHT22;673;48.098;14.422;2022-08-19T10:52:48;25.30;99.80
1359;DHT22;673;48.098;14.422;2022-08-19T10:55:19;25.60;99.00
1359;DHT22;673;48.098;14.422;2022-08-19T10:58:06;25.30;99.20
1359;DHT22;673;48.098;14.422;2022-08-19T11:00:36;25.50;98.60
1359;DHT22;673;48.098;14.422;2022-08-19T11:03:03;26.00;97.50
1359;DHT22;673;48.098;14.422;2022-08-19T11:05:30;26.20;96.50
1359;DHT22;673;48.098;14.422;2022-08-19T11:07:57;26.20;96.80
1359;DHT22;673;48.098;14.422;2022-08-19T11:10:26;26.10;95.90
1359;DHT22;673;48.098;14.422;2022-08-19T11:12:53;26.20;94.70
1359;DHT22;673;48.098;14.422;2022-08-19T11:15:21;26.00;95.80
1359;DHT22;673;48.098;14.422;2022-08-19T11:17:48;26.40;95.60
1359;DHT22;673;48.098;14.422;2022-08-19T11:20:19;26.20;95.80
1359;DHT22;673;48.098;14.422;2022-08-19T11:22:46;25.60;96.50
1359;DHT22;673;48.098;14.422;2022-08-19T11:25:13;25.20;98.10
1359;DHT22;673;48.098;14.422;2022-08-19T11:27:42;25.10;98.30
1359;DHT22;673;48.098;14.422;2022-08-19T11:30:12;25.00;98.20
1359;DHT22;673;48.098;14.422;2022-08-19T11:32:40;25.30;97.80
1359;DHT22;673;48.098;14.422;2022-08-19T11:35:08;25.50;96.80
1359;DHT22;673;48.098;14.422;2022-08-19T11:37:36;25.80;96.80
1359;DHT22;673;48.098;14.422;2022-08-19T11:40:05;26.00;95.40
1359;DHT22;673;48.098;14.422;2022-08-19T11:42:32;26.20;94.70
1359;DHT22;673;48.098;14.422;2022-08-19T11:45:18;26.20;95.00
1359;DHT22;673;48.098;14.422;2022-08-19T11:47:45;26.40;94.40
1359;DHT22;673;48.098;14.422;2022-08-19T11:50:13;26.60;93.50
1359;DHT22;673;48.098;14.422;2022-08-19T11:52:40;26.70;93.10
1359;DHT22;673;48.098;14.422;2022-08-19T11:55:08;26.70;93.50
1359;DHT22;673;48.098;14.422;2022-08-19T11:57:35;26.30;93.00
1359;DHT22;673;48.098;14.422;2022-08-19T12:00:04;26.00;93.90
1359;DHT22;673;48.098;14.422;2022-08-19T12:02:33;26.00;94.30
1359;DHT22;673;48.098;14.422;2022-08-19T12:05:00;26.40;93.90
1359;DHT22;673;48.098;14.422;2022-08-19T12:07:28;26.60;93.80
1359;DHT22;673;48.098;14.422;2022-08-19T12:09:59;26.50;93.60
1359;DHT22;673;48.098;14.422;2022-08-19T12:12:26;26.30;93.20
1359;DHT22;673;48.098;14.422;2022-08-19T12:14:54;26.50;93.50
1359;DHT22;673;48.098;14.422;2022-08-19T12:17:24;26.60;93.90
1359;DHT22;673;48.098;14.422;2022-08-19T12:19:53;26.30;94.00
1359;DHT22;673;48.098;14.422;2022-08-19T12:22:21;26.10;93.80
1359;DHT22;673;48.098;14.422;2022-08-19T12:24:48;26.20;94.10
1359;DHT22;673;48.098;14.422;2022-08-19T12:27:18;26.40;94.50
1359;DHT22;673;48.098;14.422;2022-08-19T12:29:46;26.70;93.00
1359;DHT22;673;48.098;14.422;2022-08-19T12:32:14;27.00;93.80
1359;DHT22;673;48.098;14.422;2022-08-19T12:34:42;27.60;93.00
1359;DHT22;673;48.098;14.422;2022-08-19T12:37:11;27.90;93.30
1359;DHT22;673;48.098;14.422;2022-08-19T12:39:40;27.80;92.50
1359;DHT22;673;48.098;14.422;2022-08-19T12:42:09;27.70;92.90
1359;DHT22;673;48.098;14.422;2022-08-19T12:44:36;28.00;91.70
1359;DHT22;673;48.098;14.422;2022-08-19T12:47:05;28.50;91.20
1359;DHT22;673;48.098;14.422;2022-08-19T12:49:33;29.00;90.90
1359;DHT22;673;48.098;14.422;2022-08-19T12:52:02;29.40;90.70
1359;DHT22;673;48.098;14.422;2022-08-19T12:54:31;29.30;86.50
1359;DHT22;673;48.098;14.422;2022-08-19T12:56:58;28.80;87.50
1359;DHT22;673;48.098;14.422;2022-08-19T12:59:26;28.20;90.10
1359;DHT22;673;48.098;14.422;2022-08-19T13:01:53;27.50;89.90
1359;DHT22;673;48.098;14.422;2022-08-19T13:04:20;27.50;90.00
1359;DHT22;673;48.098;14.422;2022-08-19T13:06:47;27.80;90.70
1359;DHT22;673;48.098;14.422;2022-08-19T13:09:14;27.90;90.10
1359;DHT22;673;48.098;14.422;2022-08-19T13:11:42;27.90;91.00
1359;DHT22;673;48.098;14.422;2022-08-19T13:14:10;27.90;88.90
1359;DHT22;673;48.098;14.422;2022-08-19T13:16:37;28.10;88.20
1359;DHT22;673;48.098;14.422;2022-08-19T13:19:04;28.40;87.00
1359;DHT22;673;48.098;14.422;2022-08-19T13:21:33;28.30;88.80
1359;DHT22;673;48.098;14.422;2022-08-19T13:24:00;28.60;87.40
1359;DHT22;673;48.098;14.422;2022-08-19T13:26:27;28.50;87.00
1359;DHT22;673;48.098;14.422;2022-08-19T13:28:55;28.50;85.80
1359;DHT22;673;48.098;14.422;2022-08-19T13:31:40;28.40;85.20
1359;DHT22;673;48.098;14.422;2022-08-19T13:34:28;28.10;86.80
1359;DHT22;673;48.098;14.422;2022-08-19T13:36:56;28.00;88.70
1359;DHT22;673;48.098;14.422;2022-08-19T13:39:23;27.60;89.30
1359;DHT22;673;48.098;14.422;2022-08-19T13:41:50;27.70;89.20
1359;DHT22;673;48.098;14.422;2022-08-19T13:44:19;27.90;90.00
1359;DHT22;673;48.098;14.422;2022-08-19T13:46:46;28.00;90.20
1359;DHT22;673;48.098;14.422;2022-08-19T13:49:14;28.00;88.30
1359;DHT22;673;48.098;14.422;2022-08-19T13:51:42;28.00;90.10
1359;DHT22;673;48.098;14.422;2022-08-19T13:54:10;27.90;88.20
1359;DHT22;673;48.098;14.422;2022-08-19T13:56:40;28.20;87.20
1359;DHT22;673;48.098;14.422;2022-08-19T13:59:07;28.20;89.90
1359;DHT22;673;48.098;14.422;2022-08-19T14:01:36;28.30;88.30
1359;DHT22;673;48.098;14.422;2022-08-19T14:04:04;27.80;89.10
1359;DHT22;673;48.098;14.422;2022-08-19T14:06:32;27.60;90.00
1359;DHT22;673;48.098;14.422;2022-08-19T14:08:59;27.70;90.50
1359;DHT22;673;48.098;14.422;2022-08-19T14:11:27;27.90;88.50
1359;DHT22;673;48.098;14.422;2022-08-19T14:13:54;28.40;88.80
1359;DHT22;673;48.098;14.422;2022-08-19T14:16:21;28.50;88.60
1359;DHT22;673;48.098;14.422;2022-08-19T14:18:50;28.30;88.50
1359;DHT22;673;48.098;14.422;2022-08-19T14:21:21;28.20;88.50
1359;DHT22;673;48.098;14.422;2022-08-19T14:23:49;28.20;88.70
1359;DHT22;673;48.098;14.422;2022-08-19T14:26:17;27.70;87.80
1359;DHT22;673;48.098;14.422;2022-08-19T14:28:45;27.40;89.60
1359;DHT22;673;48.098;14.422;2022-08-19T14:31:14;27.10;89.40
1359;DHT22;673;48.098;14.422;2022-08-19T14:33:45;26.80;90.50
1359;DHT22;673;48.098;14.422;2022-08-19T14:36:13;26.80;92.30
1359;DHT22;673;48.098;14.422;2022-08-19T14:38:40;26.60;90.60
1359;DHT22;673;48.098;14.422;2022-08-19T14:41:10;26.50;90.70
1359;DHT22;673;48.098;14.422;2022-08-19T14:43:38;26.30;91.90
1359;DHT22;673;48.098;14.422;2022-08-19T14:46:06;26.30;91.00
1359;DHT22;673;48.098;14.422;2022-08-19T14:48:33;26.20;91.30
1359;DHT22;673;48.098;14.422;2022-08-19T14:51:02;26.20;91.10
1359;DHT22;673;48.098;14.422;2022-08-19T14:53:30;26.10;91.40
1359;DHT22;673;48.098;14.422;2022-08-19T14:55:59;26.10;91.30
1359;DHT22;673;48.098;14.422;2022-08-19T14:58:26;26.10;91.20
1359;DHT22;673;48.098;14.422;2022-08-19T15:00:53;26.00;91.30
1359;DHT22;673;48.098;14.422;2022-08-19T15:03:20;25.90;91.60
1359;DHT22;673;48.098;14.422;2022-08-19T15:05:47;25.90;92.10
1359;DHT22;673;48.098;14.422;2022-08-19T15:08:14;25.90;92.00
1359;DHT22;673;48.098;14.422;2022-08-19T15:10:42;25.90;92.10
1359;DHT22;673;48.098;14.422;2022-08-19T15:13:11;25.90;92.20
1359;DHT22;673;48.098;14.422;2022-08-19T15:15:38;25.90;92.60
1359;DHT22;673;48.098;14.422;2022-08-19T15:18:05;25.60;92.70
1359;DHT22;673;48.098;14.422;2022-08-19T15:20:32;25.50;93.30
1359;DHT22;673;48.098;14.422;2022-08-19T15:22:59;25.40;93.80
1359;DHT22;673;48.098;14.422;2022-08-19T15:25:27;25.20;95.20
1359;DHT22;673;48.098;14.422;2022-08-19T15:27:56;25.00;95.70
1359;DHT22;673;48.098;14.422;2022-08-19T15:30:26;24.70;96.50
1359;DHT22;673;48.098;14.422;2022-08-19T15:32:54;24.20;97.70
1359;DHT22;673;48.098;14.422;2022-08-19T15:35:22;22.80;99.90
1359;DHT22;673;48.098;14.422;2022-08-19T15:37:50;21.70;99.90
1359;DHT22;673;48.098;14.422;2022-08-19T15:40:18;21.10;99.90
1359;DHT22;673;48.098;14.422;2022-08-19T15:42:47;20.70;99.90
1359;DHT22;673;48.098;14.422;2022-08-19T15:45:18;20.50;99.90
1359;DHT22;673;48.098;14.422;2022-08-19T15:47:46;20.00;99.90
1359;DHT22;673;48.098;14.422;2022-08-19T15:50:17;19.20;99.90
1359;DHT22;673;48.098;14.422;2022-08-19T15:52:46;18.50;99.90
1359;DHT22;673;48.098;14.422;2022-08-19T15:55:13;17.90;99.90
1359;DHT22;673;48.098;14.422;2022-08-19T15:57:40;17.50;99.90
1359;DHT22;673;48.098;14.422;2022-08-19T16:00:26;17.40;99.90
1359;DHT22;673;48.098;14.422;2022-08-19T16:03:12;17.50;99.90
1359;DHT22;673;48.098;14.422;2022-08-19T16:05:58;17.60;99.90
1359;DHT22;673;48.098;14.422;2022-08-19T16:08:42;17.70;99.90
1359;DHT22;673;48.098;14.422;2022-08-19T16:11:10;17.90;99.90
1359;DHT22;673;48.098;14.422;2022-08-19T16:13:38;17.90;99.90